Time;durP1;ratioP1;P1;durP2;ratioP2;P2;SDS_P1;SDS_P2;PMS_P1;PMS_P2;Temp;Humidity;BMP_temperature;BMP_pressure;BME280_temperature;BME280_humidity;BME280_pressure;Samples;Min_cycle;Max_cycle;Signal;HPM_P1;HPM_P2
2022/09/27 00:03:16;;;;;;;29.63;18.52;;;8.60;99.90;;;;;;21058325;28;20039;-49
2022/09/27 00:13:19;;;;;;;26.23;17.02;;;8.70;99.90;;;;;;21041565;28;20032;-51
2022/09/27 00:23:22;;;;;;;34.25;20.02;;;8.70;99.90;;;;;;21056646;28;20036;-50
2022/09/27 00:33:25;;;;;;;31.20;21.00;;;8.70;99.90;;;;;;21056025;28;20172;-49
2022/09/27 00:43:52;;;;;;;39.15;23.25;;;8.80;99.90;;;;;;21075881;28;20035;-62
2022/09/27 00:53:56;;;;;;;15.32;7.80;;;8.90;99.90;;;;;;21066622;28;20044;-51
2022/09/27 01:04:02;;;;;;;13.18;7.53;;;8.80;99.90;;;;;;21037512;28;20044;-48
2022/09/27 01:14:42;;;;;;;10.95;5.70;;;7.90;99.90;;;;;;21037287;28;20044;-47
2022/09/27 01:25:21;;;;;;;12.55;7.03;;;7.60;99.90;;;;;;21037245;28;20048;-53
2022/09/27 01:35:23;;;;;;;7.05;4.03;;;7.50;99.90;;;;;;21036021;28;20032;-48
2022/09/27 01:45:32;;;;;;;2.25;1.67;;;7.40;99.90;;;;;;21105412;28;20476;-49
2022/09/27 01:55:54;;;;;;;4.65;2.47;;;7.40;99.90;;;;;;21081102;28;20071;-50
2022/09/27 02:06:49;;;;;;;3.50;2.17;;;7.60;99.90;;;;;;21051525;28;20093;-61
2022/09/27 02:17:22;;;;;;;1.77;1.55;;;7.50;99.90;;;;;;21067125;28;20032;-49
2022/09/27 02:27:36;;;;;;;2.63;1.80;;;7.70;99.90;;;;;;21066422;28;20040;-48
2022/09/27 02:37:45;;;;;;;3.13;2.53;;;7.90;99.90;;;;;;21050023;28;20036;-46
2022/09/27 02:47:56;;;;;;;3.35;2.42;;;7.90;99.90;;;;;;21117887;28;20081;-49
2022/09/27 02:58:32;;;;;;;2.75;1.98;;;7.90;99.90;;;;;;21063497;28;20489;-48
2022/09/27 03:09:21;;;;;;;5.68;3.90;;;7.60;99.90;;;;;;20403880;29;20107;-49
2022/09/27 03:19:23;;;;;;;;;;;7.50;99.90;;;;;;20388065;28;20462;-47
2022/09/27 03:29:45;;;;;;;12.88;7.35;;;7.20;99.90;;;;;;20402660;28;19970;-48
2022/09/27 03:39:48;;;;;;;12.10;7.63;;;7.10;99.90;;;;;;20707581;28;20041;-48
2022/09/27 03:49:51;;;;;;;15.95;9.50;;;7.20;99.90;;;;;;21086844;28;20081;-49
2022/09/27 03:59:54;;;;;;;25.20;14.27;;;7.40;99.90;;;;;;21041841;28;20040;-49
2022/09/27 04:10:15;;;;;;;16.58;10.32;;;7.70;99.90;;;;;;21026589;28;20371;-49
2022/09/27 04:20:18;;;;;;;15.13;10.32;;;7.80;99.90;;;;;;21090432;28;20176;-48
2022/09/27 04:30:21;;;;;;;79.32;9.93;;;7.90;99.90;;;;;;21094115;28;20035;-62
2022/09/27 04:40:49;;;;;;;14.80;6.07;;;8.00;99.90;;;;;;20828036;28;20079;-50
2022/09/27 04:51:01;;;;;;;6.30;4.90;;;8.00;99.90;;;;;;20781558;28;20119;-49
2022/09/27 05:01:05;;;;;;;4.00;3.03;;;8.00;99.90;;;;;;20823180;28;20045;-50
2022/09/27 05:11:37;;;;;;;4.32;2.60;;;8.00;99.90;;;;;;20852912;28;20401;-51
2022/09/27 05:21:52;;;;;;;4.07;3.20;;;7.80;99.90;;;;;;21007343;28;20047;-47
2022/09/27 05:31:55;;;;;;;3.38;2.33;;;7.80;99.90;;;;;;21053099;28;20556;-49
2022/09/27 05:41:59;;;;;;;2.40;1.40;;;7.70;99.90;;;;;;21060415;28;20028;-49
2022/09/27 05:52:01;;;;;;;1.50;1.05;;;7.70;99.90;;;;;;21096778;28;20040;-51
2022/09/27 06:02:06;;;;;;;2.05;1.45;;;7.50;99.90;;;;;;21051941;28;20085;-48
2022/09/27 06:12:34;;;;;;;5.22;1.50;;;7.50;99.90;;;;;;20713040;28;20050;-50
2022/09/27 06:22:40;;;;;;;1.95;1.10;;;7.40;99.90;;;;;;20712865;28;20518;-52
2022/09/27 06:32:43;;;;;;;2.72;2.22;;;7.30;99.90;;;;;;20727089;28;20100;-46
2022/09/27 06:43:19;;;;;;;3.78;1.92;;;7.10;99.90;;;;;;20580757;28;20049;-49
2022/09/27 06:53:40;;;;;;;2.60;1.80;;;7.00;99.90;;;;;;20755436;28;20092;-48
2022/09/27 07:03:48;;;;;;;4.57;3.40;;;7.00;99.90;;;;;;20724726;28;20116;-47
2022/09/27 07:14:10;;;;;;;5.00;4.07;;;7.80;99.90;;;;;;20808938;28;20416;-51
2022/09/27 07:24:13;;;;;;;7.53;5.63;;;8.80;99.90;;;;;;21035893;28;20058;-50
2022/09/27 07:41:45;;;;;;;11.83;8.27;;;9.70;99.90;;;;;;21144008;27;20383;-50
2022/09/27 07:51:50;;;;;;;13.77;7.85;;;10.30;99.90;;;;;;21142444;28;20088;-52
2022/09/27 08:02:16;;;;;;;8.55;6.65;;;10.40;99.90;;;;;;21125009;28;20039;-49
2022/09/27 08:12:21;;;;;;;8.65;7.18;;;10.50;99.90;;;;;;21140376;28;20081;-50
2022/09/27 08:22:25;;;;;;;6.97;5.88;;;10.40;99.90;;;;;;21139334;28;20093;-46
2022/09/27 08:32:40;;;;;;;7.22;5.80;;;10.50;99.90;;;;;;21138925;28;20457;-47
2022/09/27 08:43:00;;;;;;;6.43;5.68;;;11.10;99.90;;;;;;21121525;28;20053;-49
2022/09/27 08:53:21;;;;;;;4.88;4.38;;;12.50;99.90;;;;;;21081316;28;20094;-49
2022/09/27 09:03:28;;;;;;;5.57;5.05;;;14.40;99.90;;;;;;21080785;28;20374;-50
2022/09/27 09:13:53;;;;;;;4.78;3.97;;;15.40;99.90;;;;;;21080368;28;20101;-59
2022/09/27 09:24:18;;;;;;;3.58;2.97;;;16.40;99.90;;;;;;21079554;28;20032;-48
2022/09/27 09:34:50;;;;;;;5.10;3.22;;;16.40;99.90;;;;;;21061010;28;20048;-60
2022/09/27 09:45:15;;;;;;;4.40;4.00;;;17.00;99.90;;;;;;21059870;28;20121;-47
2022/09/27 09:55:23;;;;;;;4.18;3.22;;;17.90;99.90;;;;;;21076106;28;20097;-48
2022/09/27 10:05:27;;;;;;;4.28;3.80;;;17.50;99.90;;;;;;21059340;28;20028;-57
2022/09/27 10:15:38;;;;;;;4.40;4.00;;;17.30;99.90;;;;;;21075371;28;20035;-59
2022/09/27 10:26:03;;;;;;;6.75;5.07;;;17.60;99.90;;;;;;21074451;28;20132;-50
2022/09/27 10:36:28;;;;;;;7.22;6.47;;;15.80;99.90;;;;;;21056197;28;20074;-59
2022/09/27 10:46:33;;;;;;;7.00;6.30;;;14.10;99.90;;;;;;21072567;28;20040;-47
2022/09/27 10:56:55;;;;;;;9.13;7.40;;;14.00;99.90;;;;;;21071497;28;20028;-59
2022/09/27 11:07:17;;;;;;;8.10;7.05;;;14.80;99.90;;;;;;21053497;28;20054;-50
2022/09/27 11:17:49;;;;;;;8.93;6.70;;;16.00;99.90;;;;;;21069952;28;20544;-49
2022/09/27 11:28:27;;;;;;;9.95;8.70;;;15.70;99.90;;;;;;21069474;28;20036;-59
2022/09/27 11:38:49;;;;;;;9.13;8.23;;;15.60;99.90;;;;;;20959504;28;20060;-59
2022/09/27 11:49:13;;;;;;;10.82;9.15;;;15.80;99.90;;;;;;20976265;28;20036;-50
2022/09/27 11:59:54;;;;;;;13.10;9.80;;;15.50;99.90;;;;;;20959734;28;20606;-49
2022/09/27 12:10:04;;;;;;;16.70;14.00;;;15.10;99.90;;;;;;20992441;28;20035;-59
2022/09/27 12:20:23;;;;;;;15.73;13.88;;;14.50;99.90;;;;;;21053542;28;20047;-57
2022/09/27 12:30:30;;;;;;;15.38;13.25;;;14.00;99.90;;;;;;21082938;28;20035;-59
2022/09/27 12:40:52;;;;;;;12.98;11.63;;;14.90;99.90;;;;;;21048638;28;20101;-50
2022/09/27 12:51:10;;;;;;;13.00;11.60;;;15.30;99.90;;;;;;21045089;28;20040;-50
2022/09/27 13:01:48;;;;;;;11.35;10.15;;;15.20;99.90;;;;;;21081785;28;20108;-60
2022/09/27 13:12:09;;;;;;;13.73;12.23;;;15.20;99.90;;;;;;21079581;28;20396;-50
2022/09/27 13:22:26;;;;;;;10.60;9.40;;;16.00;99.90;;;;;;21078509;28;20093;-47
2022/09/27 13:32:39;;;;;;;15.40;12.77;;;16.50;99.90;;;;;;21059768;28;20070;-52
2022/09/27 13:42:55;;;;;;;14.25;12.75;;;16.70;99.90;;;;;;21076842;28;20090;-60
2022/09/27 13:53:05;;;;;;;19.60;15.00;;;16.30;99.90;;;;;;21076984;28;20039;-48
2022/09/27 14:03:14;;;;;;;19.45;16.30;;;15.50;99.90;;;;;;21076735;28;20039;-59
2022/09/27 14:13:26;;;;;;;18.92;16.88;;;14.80;99.90;;;;;;21061661;28;20032;-48
2022/09/27 14:23:38;;;;;;;26.27;21.20;;;14.10;99.90;;;;;;21079143;28;20097;-60
2022/09/27 14:33:42;;;;;;;22.13;19.20;;;13.40;99.90;;;;;;21045012;28;20051;-59
2022/09/27 14:43:51;;;;;;;25.02;21.88;;;13.20;99.90;;;;;;21077414;28;20032;-52
2022/09/27 14:54:25;;;;;;;25.38;20.88;;;12.70;99.90;;;;;;21079268;28;20409;-58
2022/09/27 15:04:33;;;;;;;26.42;22.30;;;12.20;99.90;;;;;;21076216;28;20035;-48
2022/09/27 15:14:39;;;;;;;22.88;20.10;;;12.30;99.90;;;;;;21075604;28;20101;-50
2022/09/27 15:24:45;;;;;;;24.17;20.08;;;12.40;99.90;;;;;;21074958;28;20032;-51
2022/09/27 15:34:48;;;;;;;27.85;21.67;;;12.40;99.90;;;;;;21128198;28;20047;-59
2022/09/27 15:44:53;;;;;;;24.85;20.67;;;12.10;99.90;;;;;;21194102;28;20093;-49
2022/09/27 15:54:55;;;;;;;25.58;19.60;;;11.90;99.90;;;;;;21161244;28;20039;-50
2022/09/27 16:04:58;;;;;;;23.65;18.42;;;11.80;99.90;;;;;;21157611;28;20084;-57
2022/09/27 16:15:00;;;;;;;22.73;17.60;;;11.60;99.90;;;;;;21156334;28;20473;-51
2022/09/27 16:25:05;;;;;;;28.17;21.17;;;11.30;99.90;;;;;;21172824;28;20040;-49
2022/09/27 16:35:08;;;;;;;24.05;19.05;;;11.00;99.90;;;;;;21154585;28;20446;-48
2022/09/27 16:45:11;;;;;;;23.42;19.40;;;10.80;99.90;;;;;;21154595;28;20366;-49
2022/09/27 16:55:19;;;;;;;24.73;19.33;;;10.60;99.90;;;;;;21153496;28;20434;-49
2022/09/27 17:05:22;;;;;;;23.60;18.67;;;10.50;99.90;;;;;;21152492;28;20031;-48
2022/09/27 17:15:25;;;;;;;26.52;20.60;;;10.20;99.90;;;;;;21151877;28;20032;-48
2022/09/27 17:25:28;;;;;;;28.05;19.77;;;9.70;99.90;;;;;;21134637;28;20031;-49
2022/09/27 17:35:31;;;;;;;24.35;17.88;;;9.20;99.90;;;;;;21150017;28;20047;-49
2022/09/27 17:45:33;;;;;;;25.05;17.20;;;8.90;99.90;;;;;;21149500;28;20092;-50
2022/09/27 17:56:00;;;;;;;36.13;24.43;;;8.50;99.90;;;;;;21167933;28;20035;-50
2022/09/27 18:06:07;;;;;;;27.83;19.52;;;8.40;99.90;;;;;;21147961;28;20096;-57
2022/09/27 18:16:14;;;;;;;37.65;24.85;;;8.20;99.90;;;;;;21146722;28;20032;-58
2022/09/27 18:26:21;;;;;;;52.80;32.97;;;8.20;99.90;;;;;;21145771;28;20101;-47
2022/09/27 18:36:26;;;;;;;50.17;29.95;;;8.30;99.90;;;;;;21144850;28;20101;-50
2022/09/27 18:46:32;;;;;;;56.50;33.58;;;8.30;99.90;;;;;;21126145;27;20091;-57
2022/09/27 18:56:38;;;;;;;54.80;31.08;;;8.50;99.90;;;;;;21141311;28;20039;-61
2022/09/27 19:06:40;;;;;;;37.55;24.25;;;8.30;99.90;;;;;;21178074;27;20496;-61
2022/09/27 19:16:45;;;;;;;36.55;24.02;;;8.00;99.90;;;;;;21065985;28;20058;-61
2022/09/27 19:26:52;;;;;;;48.40;29.45;;;7.70;99.90;;;;;;21121264;28;20027;-61
2022/09/27 19:36:54;;;;;;;60.92;34.63;;;7.60;99.90;;;;;;21084966;28;20121;-59
2022/09/27 19:46:57;;;;;;;29.80;20.10;;;7.70;99.90;;;;;;21057274;28;20036;-62
2022/09/27 19:56:59;;;;;;;38.97;24.90;;;7.50;99.90;;;;;;21056881;28;20036;-62
2022/09/27 20:07:02;;;;;;;33.15;22.42;;;7.50;99.90;;;;;;21054980;28;20035;-62
2022/09/27 20:17:04;;;;;;;44.55;27.52;;;7.40;99.90;;;;;;21038172;28;20065;-62
2022/09/27 20:27:07;;;;;;;49.25;30.00;;;7.20;99.90;;;;;;21057342;28;20481;-58
2022/09/27 20:37:10;;;;;;;39.50;24.17;;;7.20;99.90;;;;;;21095512;28;20089;-61
2022/09/27 20:47:13;;;;;;;42.78;27.38;;;7.20;99.90;;;;;;21160924;27;20057;-58
2022/09/27 20:57:15;;;;;;;35.83;23.48;;;7.60;99.90;;;;;;21167399;28;20112;-53
2022/09/27 21:07:22;;;;;;;30.52;21.02;;;7.90;99.90;;;;;;21132671;28;20032;-50
2022/09/27 21:17:24;;;;;;;34.25;23.63;;;8.30;99.90;;;;;;21154991;28;20078;-59
2022/09/27 21:27:45;;;;;;;36.83;22.38;;;8.20;99.90;;;;;;21172691;28;20035;-49
2022/09/27 21:37:48;;;;;;;39.60;25.45;;;8.20;99.90;;;;;;21105355;28;20044;-51
2022/09/27 21:47:50;;;;;;;47.85;27.83;;;8.40;99.90;;;;;;21066283;28;20031;-48
2022/09/27 21:57:53;;;;;;;65.43;37.03;;;8.40;99.90;;;;;;21064803;28;20090;-49
2022/09/27 22:07:55;;;;;;;79.85;43.65;;;8.40;99.90;;;;;;21063299;28;20065;-48
2022/09/27 22:17:59;;;;;;;107.50;51.20;;;8.10;99.90;;;;;;21062708;28;20032;-51
2022/09/27 22:28:02;;;;;;;100.28;49.65;;;8.10;99.90;;;;;;21061575;28;20093;-50
2022/09/27 22:38:05;;;;;;;96.32;47.35;;;8.20;99.90;;;;;;21157247;27;20108;-48
2022/09/27 22:48:07;;;;;;;66.30;37.42;;;8.50;99.90;;;;;;21166950;27;20537;-50
2022/09/27 22:58:10;;;;;;;70.57;38.00;;;8.10;99.90;;;;;;21143085;28;20031;-49
2022/09/27 23:08:13;;;;;;;78.88;40.53;;;7.60;99.90;;;;;;21142053;28;20036;-52
2022/09/27 23:18:16;;;;;;;68.18;36.65;;;7.60;99.90;;;;;;21124823;28;20108;-49
2022/09/27 23:28:19;;;;;;;69.22;35.83;;;7.80;99.90;;;;;;21141542;28;20404;-48
2022/09/27 23:38:21;;;;;;;67.65;37.58;;;7.40;99.90;;;;;;21140997;28;20092;-52
2022/09/27 23:48:25;;;;;;;61.95;35.35;;;7.30;99.90;;;;;;21140543;28;20035;-53
2022/09/27 23:58:36;;;;;;;77.60;42.55;;;7.70;99.90;;;;;;21139933;28;20032;-50
